Hoskings Ranch (222) Station Data

Red Flag Warning: Yes
Fire Weather Zone: 258
SDGE Region: Ramona
Lat/Lon: 33.083/-116.657

Observations

Time Wind Speed/Gust Temp(F) RH Fuel Moist Fuel Temp(F) Dewpt(F) Tmax(F) Tmin(F) Accum Precip 10-min Precip SL Press(mb)
6/27 5:00pm 233 15 G 22 83° 17% - - 34° 87.3° 69.9° - - -
6/27 4:50pm 235 15 G 22 83° 17% - - 34° 87.3° 69.9° - - -
6/27 4:40pm 232 16 G 24 83° 17% - - 34° 87.3° 69.9° - - -
6/27 4:30pm 240 16 G 24 83° 17% - - 34° 87.3° 69.9° - - -
6/27 4:20pm 233 16 G 23 84° 17% - - 34° 87.3° 69.9° - - -
6/27 4:10pm 233 17 G 27 84° 16% - - 32° 87.3° 69.9° - - -
6/27 4:00pm 239 16 G 23 84° 15% - - 31° 87.3° 69.9° - - -
6/27 3:50pm 243 17 G 25 84° 15% - - 31° 87.3° 69.9° - - -
6/27 3:40pm 249 16 G 25 85° 14% - - 29° 87.3° 69.9° - - -
6/27 3:30pm 247 15 G 25 85° 14% - - 30° 87.3° 69.9° - - -
6/27 3:20pm 248 16 G 27 85° 14% - - 30° 87.3° 69.9° - - -
6/27 3:10pm 242 16 G 26 85° 15% - - 33° 87.3° 69.9° - - -
6/27 3:00pm 239 16 G 28 86° 15% - - 33° 87.3° 69.9° - - -
6/27 2:50pm 236 17 G 31 86° 15% - - 33° 87.3° 69.9° - - -
6/27 2:40pm 240 15 G 24 86° 14% - - 31° 87.3° 69.9° - - -
6/27 2:30pm 250 16 G 27 86° 13% - - 30° 87.3° 69.9° - - -
6/27 2:20pm 241 16 G 27 86° 14% - - 31° 87.3° 69.9° - - -
6/27 2:10pm 246 15 G 26 86° 13% - - 29° 87.3° 69.9° - - -
6/27 2:00pm 234 18 G 28 86° 13% - - 28° 87.3° 69.9° - - -
6/27 1:50pm 243 15 G 24 86° 12% - - 28° 87.3° 69.9° - - -
6/27 1:40pm 238 17 G 28 85° 12% - - 27° 86.5° 69.9° - - -
6/27 1:30pm 247 15 G 23 86° 11% - - 26° 86.5° 69.9° - - -
6/27 1:20pm 239 15 G 25 86° 11% - - 25° 86.5° 69.9° - - -
6/27 1:10pm 245 14 G 26 85° 11% - - 25° 86.5° 69.9° - - -
6/27 1:00pm 236 13 G 22 85° 11% - - 25° 86.5° 69.9° - - -
6/27 12:50pm 228 15 G 28 85° 11% - - 25° 86.5° 69.9° - - -
6/27 12:40pm 244 13 G 22 85° 11% - - 25° 86° 69.9° - - -
6/27 12:30pm 235 15 G 24 84° 11% - - 25° 85.5° 69.9° - - -
6/27 12:20pm 237 16 G 25 84° 12% - - 25° 84.9° 69.9° - - -
6/27 12:10pm 233 15 G 30 84° 12% - - 26° 84.9° 69.9° - - -
6/27 12:00pm 235 14 G 21 84° 12% - - 26° 84.9° 69.9° - - -
6/27 11:50am 229 13 G 20 84° 12% - - 26° 84.9° 69.9° - - -
6/27 11:40am 233 12 G 20 84° 12% - - 27° 84.9° 69.9° - - -
6/27 11:30am 233 14 G 26 83° 12% - - 26° 84.4° 69.9° - - -
6/27 11:20am 239 12 G 20 83° 13% - - 27° 84.4° 69.9° - - -
6/27 11:10am 233 13 G 23 83° 13% - - 26° 83.9° 69.9° - - -
6/27 11:00am 241 12 G 22 83° 13% - - 26° 83.9° 69.9° - - -
6/27 10:50am 242 10 G 17 83° 13% - - 27° 83.9° 69.9° - - -
6/27 10:40am 257 11 G 20 83° 13% - - 26° 83.4° 69.9° - - -
6/27 10:30am 234 12 G 19 82° 13% - - 27° 83.1° 69.9° - - -
6/27 10:20am 246 9 G 15 83° 13% - - 28° 83.1° 69.9° - - -
6/27 10:10am 259 8 G 13 82° 14% - - 28° 82.7° 69.9° - - -
6/27 10:00am 236 9 G 12 81° 15% - - 28° 81.8° 69.9° - - -
6/27 9:50am 241 7 G 11 81° 15% - - 29° 81.8° 69.9° - - -
6/27 9:40am 255 7 G 14 81° 15% - - 29° 81.4° 69.9° - - -
6/27 9:30am 238 7 G 10 80° 15% - - 28° 80.7° 69.9° - - -
6/27 9:20am 241 6 G 11 80° 15% - - 28° 80.3° 69.9° - - -
6/27 9:10am 241 7 G 10 79° 15% - - 28° 79.9° 69.9° - - -
6/27 9:00am 228 8 G 12 79° 14% - - 26° 79.3° 69.9° - - -
6/27 8:40am 235 6 G 8 78° 15% - - 26° 78.6° 69.9° - - -
6/27 8:30am 249 5 G 8 78° 14% - - 26° 78.6° 69.9° - - -
6/27 8:20am 255 4 G 7 78° 14% - - 24° 78.4° 69.9° - - -
6/27 8:10am 256 3 G 5 78° 14% - - 25° 78.3° 69.9° - - -
6/27 8:00am 240 3 G 5 77° 15% - - 26° 77.7° 69.9° - - -
6/27 7:50am 228 3 G 5 77° 15% - - 26° 77.3° 69.9° - - -
6/27 7:40am 232 2 G 4 76° 16% - - 27° 77° 69.9° - - -
6/27 7:30am 215 3 G 4 75° 15% - - 25° 76.4° 69.9° - - -
6/27 7:20am 218 3 G 4 75° 15% - - 24° 76.4° 69.9° - - -
6/27 7:10am 209 3 G 4 75° 14% - - 23° 76.4° 69.9° - - -
6/27 7:00am 202 2 G 3 75° 14% - - 22° 76.4° 69.9° - - -
6/27 6:50am 196 2 G 3 74° 14% - - 22° 76.4° 69.9° - - -
6/27 6:40am 186 2 G 3 74° 14% - - 22° 76.4° 69.9° - - -
6/27 6:30am 173 1 G 2 73° 16% - - 23° 76.4° 69.9° - - -
6/27 6:20am 117 0 G 1 71° 17% - - 24° 76.4° 69.9° - - -
6/27 6:10am 65 0 G 1 71° 16% - - 23° 76.4° 69.9° - - -
6/27 6:00am 206 2 G 4 72° 15% - - 22° 76.4° 70.2° - - -
6/27 5:50am 211 3 G 4 72° 15% - - 22° 76.4° 70.2° - - -
6/27 5:40am 204 2 G 3 71° 16% - - 22° 76.4° 70.2° - - -
6/27 5:30am 204 1 G 3 71° 16% - - 23° 76.4° 70.2° - - -
6/27 5:20am 198 2 G 4 71° 16% - - 23° 76.4° 70.2° - - -
6/27 5:10am 197 2 G 5 72° 16% - - 23° 76.4° 70.2° - - -
6/27 5:00am 222 4 G 6 72° 16% - - 23° 76.4° 70.6° - - -
6/27 4:50am 224 4 G 6 72° 16% - - 23° 76.4° 70.6° - - -
6/27 4:40am 225 5 G 7 72° 16% - - 23° 76.4° 70.6° - - -
6/27 4:30am 219 5 G 6 73° 16% - - 24° 76.4° 70.6° - - -
6/27 4:20am 217 4 G 6 73° 16% - - 24° 76.4° 70.6° - - -
6/27 4:10am 236 3 G 5 72° 16% - - 24° 76.4° 70.6° - - -
6/27 4:00am 215 3 G 5 73° 16% - - 23° 76.4° 70.6° - - -
6/27 3:50am 225 3 G 5 72° 16% - - 23° 76.4° 70.6° - - -
6/27 3:40am 236 1 G 4 71° 16% - - 23° 76.4° 70.6° - - -
6/27 3:30am 276 1 G 4 72° 16% - - 23° 76.4° 70.6° - - -
6/27 3:20am 253 3 G 6 73° 15% - - 23° 76.4° 72.9° - - -
6/27 3:10am 235 6 G 8 74° 15% - - 23° 76.4° 73.6° - - -
6/27 3:00am 235 6 G 8 74° 15% - - 23° 76.4° 73.7° - - -
6/27 2:50am 227 7 G 10 74° 14% - - 23° 76.4° 73.8° - - -
6/27 2:40am 227 7 G 9 74° 14% - - 23° 76.4° 73.8° - - -
6/27 2:30am 231 8 G 11 74° 14% - - 23° 76.4° 73.8° - - -
6/27 2:20am 232 8 G 11 74° 14% - - 23° 76.4° 74° - - -
6/27 2:10am 227 9 G 12 75° 14% - - 23° 76.4° 74.1° - - -
6/27 2:00am 222 9 G 12 75° 14% - - 23° 76.4° 74.1° - - -
6/27 1:50am 223 9 G 12 75° 14% - - 23° 76.4° 74.1° - - -
6/27 1:40am 226 9 G 12 75° 14% - - 23° 76.4° 74.1° - - -
6/27 1:30am 227 8 G 11 75° 14% - - 23° 76.4° 74.1° - - -
6/27 1:20am 225 8 G 10 75° 14% - - 23° 76.4° 74.1° - - -
6/27 1:10am 226 7 G 11 75° 14% - - 23° 76.4° 74.1° - - -
6/27 1:00am 222 8 G 11 75° 14% - - 23° 76.4° 74.1° - - -
6/27 12:50am 230 7 G 9 75° 15% - - 24° 76.4° 74.1° - - -
6/27 12:40am 237 6 G 11 75° 15% - - 24° 76.4° 74.1° - - -
6/27 12:30am 243 8 G 12 75° 15% - - 24° 76.4° 74.5° - - -
6/27 12:20am 241 7 G 10 75° 15% - - 25° 76.4° 74.6° - - -
6/27 12:10am 232 8 G 11 76° 15% - - 25° 76.4° 75.1° - - -
6/27 12:00am 230 7 G 10 76° 15% - - 25° 93.5° 75.1° - - -
6/26 11:50pm 227 6 G 7 76° 15% - - 24° 93.5° 75.4° - - -
6/26 11:40pm 229 5 G 8 76° 15% - - 25° 93.5° 75.4° - - -
6/26 11:30pm 209 6 G 8 76° 15% - - 25° 93.5° 75.4° - - -
6/26 11:20pm 203 6 G 7 76° 15% - - 26° 93.5° 75.4° - - -
6/26 11:10pm 203 5 G 8 76° 15% - - 26° 93.5° 75.4° - - -
6/26 11:00pm 207 5 G 7 76° 15% - - 25° 93.5° 75.5° - - -
6/26 10:50pm 200 4 G 6 77° 15% - - 25° 93.5° 75.5° - - -
6/26 10:40pm 206 4 G 5 77° 14% - - 25° 93.5° 75.5° - - -
6/26 10:30pm 199 5 G 7 77° 14% - - 25° 93.5° 75.5° - - -
6/26 10:20pm 189 5 G 6 77° 14% - - 25° 93.5° 75.5° - - -
6/26 10:10pm 202 5 G 9 77° 14% - - 25° 93.5° 75.5° - - -
6/26 10:00pm 186 4 G 6 76° 14% - - 24° 93.5° 75.5° - - -
6/26 9:50pm 188 4 G 7 77° 14% - - 24° 93.5° 75.5° - - -
6/26 9:40pm 187 4 G 6 77° 14% - - 24° 93.5° 75.5° - - -
6/26 9:30pm 190 3 G 5 77° 14% - - 24° 93.5° 75.5° - - -
6/26 9:20pm 184 2 G 4 77° 14% - - 24° 93.5° 75.5° - - -
6/26 9:10pm 199 2 G 4 77° 14% - - 24° 93.5° 75.5° - - -
6/26 9:00pm 230 1 G 3 76° 15% - - 25° 93.5° 75.5° - - -
6/26 8:50pm 224 0 G 1 77° 14% - - 25° 93.5° 75.8° - - -
6/26 8:40pm 323 1 G 4 77° 14% - - 25° 93.5° 76.7° - - -
6/26 8:30pm 259 3 G 7 78° 13% - - 24° 93.5° 77.5° - - -
6/26 8:20pm 244 7 G 13 79° 13% - - 24° 93.5° 78.1° - - -
6/26 8:10pm 239 10 G 19 79° 13% - - 25° 93.5° 78.6° - - -
6/26 8:00pm 239 12 G 20 80° 15% - - 28° 93.5° 79.3° - - -
6/26 7:50pm 239 11 G 18 81° 16% - - 30° 93.5° 80° - - -
6/26 7:40pm 241 12 G 18 81° 16% - - 30° 93.5° 80° - - -
6/26 7:30pm 245 11 G 17 82° 16% - - 31° 93.5° 80° - - -
6/26 7:20pm 241 12 G 18 83° 16% - - 31° 93.5° 80° - - -
6/26 7:10pm 237 13 G 18 84° 14% - - 30° 93.5° 80° - - -
6/26 7:00pm 238 13 G 17 84° 13% - - 28° 93.5° 80° - - -
6/26 6:50pm 240 13 G 17 85° 12% - - 26° 93.5° 80° - - -
6/26 6:40pm 241 14 G 20 85° 11% - - 25° 93.5° 80° - - -
6/26 6:30pm 244 13 G 19 86° 11% - - 24° 93.5° 80° - - -
6/26 6:20pm 244 14 G 24 87° 10% - - 23° 93.5° 80° - - -
6/26 6:10pm 249 13 G 19 87° 10% - - 23° 93.5° 80° - - -
6/26 6:00pm 237 15 G 21 87° 10% - - 25° 93.5° 80° - - -
6/26 5:50pm 244 14 G 21 87° 10% - - 25° 93.5° 80° - - -
6/26 5:40pm 244 13 G 22 88° 11% - - 27° 93.5° 80° - - -
6/26 5:30pm 244 13 G 20 88° 12% - - 28° 93.5° 80° - - -
6/26 5:20pm 243 14 G 22 89° 11% - - 28° 93.5° 80° - - -
6/26 5:10pm 254 12 G 20 89° 11% - - 28° 93.5° 80° - - -
6/26 5:00pm 267 12 G 21 89° 11% - - 28° 93.5° 80° - - -
6/26 4:50pm 262 12 G 22 89° 11% - - 28° 93.5° 80° - - -
6/26 4:40pm 263 13 G 22 89° 12% - - 30° 93.5° 80° - - -
6/26 4:30pm 262 13 G 23 90° 11% - - 29° 93.5° 80° - - -
6/26 4:20pm 265 13 G 21 90° 12% - - 30° 93.5° 80° - - -
6/26 4:10pm 261 13 G 20 90° 11% - - 29° 93.5° 80° - - -
6/26 4:00pm 261 12 G 24 90° 12% - - 32° 93.5° 80° - - -
6/26 3:50pm 252 12 G 22 90° 13% - - 32° 93.5° 80° - - -
6/26 3:40pm 262 11 G 20 91° 13% - - 34° 93.5° 80° - - -
6/26 3:30pm 251 11 G 20 91° 14% - - 34° 93.5° 80° - - -
6/26 3:20pm 261 11 G 19 91° 14% - - 35° 93.5° 80° - - -
6/26 3:10pm 248 12 G 22 91° 14% - - 35° 93.5° 80° - - -
6/26 3:00pm 257 12 G 24 91° 14% - - 36° 93.5° 80° - - -
6/26 2:50pm 254 12 G 21 91° 15% - - 37° 93.5° 80° - - -
6/26 2:40pm 251 12 G 19 91° 16% - - 38° 93.5° 80° - - -
6/26 2:30pm 249 12 G 21 91° 16% - - 38° 93.5° 80° - - -
6/26 2:20pm 265 9 G 16 92° 15% - - 38° 93.5° 80° - - -
6/26 2:10pm 248 13 G 24 92° 15% - - 38° 93.5° 80° - - -
6/26 2:00pm 259 11 G 23 91° 16% - - 39° 93.5° 80° - - -
6/26 1:50pm 275 10 G 19 91° 16% - - 39° 93.5° 80° - - -
6/26 1:40pm 262 9 G 18 92° 15% - - 37° 93.5° 80° - - -
6/26 1:30pm 253 11 G 18 91° 15% - - 36° 92.8° 80° - - -
6/26 1:20pm 254 13 G 20 91° 13% - - 34° 92.8° 80° - - -
6/26 1:10pm 264 11 G 18 91° 13% - - 34° 92.8° 80° - - -
6/26 1:00pm 256 13 G 21 91° 12% - - 32° 92.8° 80° - - -
6/26 12:50pm 251 13 G 20 91° 12% - - 32° 92.8° 80° - - -
6/26 12:40pm 249 12 G 23 92° 13% - - 34° 92.8° 80° - - -
6/26 12:30pm 249 9 G 17 91° 13% - - 33° 92.6° 80° - - -
6/26 12:20pm 247 13 G 20 91° 12% - - 31° 92.2° 80° - - -
6/26 12:10pm 242 13 G 22 91° 12% - - 31° 92.2° 80° - - -
6/26 12:00pm 245 10 G 21 91° 12% - - 32° 92.2° 80° - - -
6/26 11:50am 253 11 G 16 90° 13% - - 32° 92.2° 80° - - -
6/26 11:40am 269 9 G 15 91° 13% - - 33° 92.2° 80° - - -
6/26 11:30am 269 8 G 15 91° 13% - - 34° 92.2° 80° - - -
6/26 11:20am 272 8 G 17 91° 13% - - 34° 92° 80° - - -
6/26 11:10am 272 9 G 16 90° 13% - - 33° 91.4° 80° - - -
6/26 11:00am 261 9 G 14 90° 13% - - 33° 91.1° 80° - - -
6/26 10:50am 273 9 G 15 90° 13% - - 33° 91.1° 80° - - -
6/26 10:40am 270 8 G 16 90° 14% - - 34° 91.1° 80° - - -
6/26 10:30am 264 8 G 14 90° 14% - - 34° 91.1° 80° - - -
6/26 10:20am 261 7 G 12 90° 14% - - 34° 90.9° 80° - - -
6/26 10:10am 253 7 G 10 89° 14% - - 34° 90° 80° - - -
6/26 10:00am 268 7 G 12 89° 14% - - 34° 89.7° 80° - - -
6/26 9:50am 258 6 G 15 88° 15% - - 34° 88.8° 80° - - -
6/26 9:40am 256 6 G 10 88° 15% - - 35° 88.8° 80° - - -
6/26 9:30am 257 5 G 8 88° 15% - - 35° 88.8° 80° - - -
6/26 9:20am 243 6 G 9 87° 15% - - 35° 88.5° 80° - - -
6/26 9:10am 241 5 G 7 87° 16% - - 36° 88.5° 80° - - -
6/26 9:00am 259 4 G 6 87° 15% - - 34° 88.5° 80° - - -
6/26 8:50am 266 4 G 6 87° 15% - - 33° 88.5° 80° - - -
6/26 8:40am 295 3 G 4 87° 14% - - 32° 88.5° 80° - - -
6/26 8:30am 293 3 G 6 87° 14% - - 32° 88.5° 80° - - -
6/26 8:20am 293 2 G 5 87° 14% - - 32° 88.5° 80° - - -
6/26 8:10am 2 2 G 4 88° 15% - - 34° 88.5° 80° - - -
6/26 8:00am 33 2 G 5 87° 15% - - 34° 87.9° 80° - - -
6/26 7:50am 22 1 G 4 87° 15% - - 34° 87.6° 80° - - -
6/26 7:40am 45 2 G 4 86° 15% - - 34° 86.9° 80° - - -
6/26 7:30am 58 2 G 4 86° 15% - - 34° 86.9° 80° - - -
6/26 7:20am 64 1 G 3 85° 15% - - 32° 86.2° 80° - - -
6/26 7:10am 67 2 G 4 85° 15% - - 31° 85.4° 80° - - -
6/26 7:00am 67 2 G 3 84° 16% - - 32° 84.5° 80° - - -
6/26 6:50am 74 2 G 4 83° 16% - - 32° 84.2° 80° - - -
6/26 6:40am 76 3 G 4 82° 16% - - 32° 84.2° 80° - - -
6/26 6:30am 74 3 G 5 82° 16% - - 32° 84.2° 80° - - -
6/26 6:20am 68 3 G 5 82° 16% - - 32° 84.2° 80° - - -
6/26 6:10am 59 2 G 4 82° 16% - - 32° 84.2° 80° - - -
6/26 6:00am 62 3 G 4 81° 17% - - 33° 84.2° 80° - - -